Time;durP1;ratioP1;P1;durP2;ratioP2;P2;SDS_P1;SDS_P2;PMS_P1;PMS_P2;Temp;Humidity;BMP_temperature;BMP_pressure;BME280_temperature;BME280_humidity;BME280_pressure;Samples;Min_cycle;Max_cycle;Signal;HPM_P1;HPM_P2
2023/01/29 00:01:06;;;;;;;8.88;4.90;;;;;;;2.93;100.00;102864.84;4983121;28;20038;-73
2023/01/29 00:03:32;;;;;;;9.27;4.40;;;;;;;2.94;100.00;102861.38;4983030;28;20457;-73
2023/01/29 00:05:58;;;;;;;9.55;4.55;;;;;;;2.94;100.00;102865.75;4983423;28;20045;-73
2023/01/29 00:08:25;;;;;;;7.93;4.10;;;;;;;2.93;100.00;102858.72;4982738;28;20080;-73
2023/01/29 00:10:51;;;;;;;9.02;4.13;;;;;;;2.93;100.00;102861.34;4982825;28;20128;-73
2023/01/29 00:13:16;;;;;;;6.45;4.30;;;;;;;2.94;100.00;102850.06;4982911;28;20038;-73
2023/01/29 00:15:42;;;;;;;9.50;4.43;;;;;;;2.93;100.00;102851.78;4983157;28;20137;-72
2023/01/29 00:18:08;;;;;;;7.47;4.45;;;;;;;2.94;100.00;102857.91;4987134;28;20427;-73
2023/01/29 00:20:34;;;;;;;8.13;4.10;;;;;;;2.94;100.00;102856.16;5010860;28;20080;-72
2023/01/29 00:22:59;;;;;;;7.25;4.15;;;;;;;2.93;100.00;102851.78;4984975;28;20049;-73
2023/01/29 00:25:25;;;;;;;5.70;4.13;;;;;;;2.93;100.00;102853.50;4984063;28;20450;-73
2023/01/29 00:27:50;;;;;;;7.97;4.43;;;;;;;2.95;100.00;102851.81;4997779;28;20228;-73
2023/01/29 00:30:18;;;;;;;8.30;4.45;;;;;;;2.95;100.00;102849.19;4983239;28;20066;-73
2023/01/29 00:32:44;;;;;;;7.25;4.35;;;;;;;2.95;100.00;102855.28;4983012;28;20046;-72
2023/01/29 00:35:10;;;;;;;7.47;4.70;;;;;;;2.95;100.00;102852.69;4985803;28;20034;-72
2023/01/29 00:37:36;;;;;;;6.78;4.38;;;;;;;2.95;100.00;102841.34;5010913;28;20050;-72
2023/01/29 00:40:03;;;;;;;8.95;4.80;;;;;;;2.96;100.00;102832.63;4981390;28;20129;-72
2023/01/29 00:45:13;;;;;;;6.53;4.78;;;;;;;2.95;100.00;102834.34;4982768;28;20214;-72
2023/01/29 00:47:39;;;;;;;8.10;4.90;;;;;;;2.96;100.00;102837.88;4983173;28;20048;-72
2023/01/29 00:50:07;;;;;;;11.95;5.40;;;;;;;2.96;100.00;102832.63;4982902;28;20115;-72
2023/01/29 00:52:35;;;;;;;9.63;5.35;;;;;;;2.95;100.00;102834.34;4980979;28;20034;-72
2023/01/29 00:55:02;;;;;;;11.50;6.55;;;;;;;2.95;100.00;102831.75;4998022;28;20060;-72
2023/01/29 00:57:29;;;;;;;10.23;5.43;;;;;;;2.97;100.00;102834.41;4981426;28;20034;-72
2023/01/29 00:59:55;;;;;;;9.50;5.32;;;;;;;2.97;100.00;102823.94;4983000;28;20069;-73
2023/01/29 01:05:09;;;;;;;11.40;5.80;;;;;;;2.95;100.00;102820.41;4980696;28;20046;-73
2023/01/29 01:07:34;;;;;;;13.27;5.78;;;;;;;2.97;100.00;102826.53;4968401;28;20341;-72
2023/01/29 01:12:44;;;;;;;13.27;6.60;;;;;;;2.97;100.00;102826.53;4981223;28;20602;-72
2023/01/29 01:15:10;;;;;;;12.00;6.10;;;;;;;2.98;100.00;102825.69;5010102;28;20403;-75
2023/01/29 01:17:35;;;;;;;11.07;5.80;;;;;;;2.98;100.00;102828.31;4980232;28;20305;-73
2023/01/29 01:20:01;;;;;;;9.38;5.28;;;;;;;2.99;100.00;102833.56;5009962;28;20414;-72
2023/01/29 01:22:27;;;;;;;9.90;5.55;;;;;;;2.98;100.00;102831.81;5009756;28;20044;-72
2023/01/29 01:24:52;;;;;;;11.55;5.72;;;;;;;2.99;100.00;102835.28;4979868;28;22112;-73
2023/01/29 01:27:18;;;;;;;8.65;5.35;;;;;;;3.00;100.00;102829.22;4995224;28;20045;-73
2023/01/29 01:29:45;;;;;;;12.57;5.78;;;;;;;3.01;100.00;102831.00;4981597;28;20408;-73
2023/01/29 01:32:11;;;;;;;9.98;5.95;;;;;;;3.02;100.00;102826.63;4982502;28;20493;-73
2023/01/29 01:34:36;;;;;;;11.35;6.57;;;;;;;3.03;100.00;102831.00;4994486;28;20125;-73
2023/01/29 01:37:02;;;;;;;11.52;6.38;;;;;;;3.04;100.00;102817.94;4981629;28;21863;-73
2023/01/29 01:39:27;;;;;;;8.73;5.25;;;;;;;3.04;100.00;102825.81;4981222;28;20041;-72
2023/01/29 01:41:54;;;;;;;11.43;6.38;;;;;;;3.05;100.00;102818.84;4981505;28;20034;-73
2023/01/29 01:44:52;;;;;;;11.27;6.43;;;;;;;3.06;100.00;102818.84;5007651;28;20038;-73
2023/01/29 01:47:35;;;;;;;10.95;5.88;;;;;;;3.05;100.00;102827.56;4981528;28;20061;-74
2023/01/29 01:50:12;;;;;;;11.15;5.60;;;;;;;3.05;100.00;102832.78;4981633;28;20120;-73
2023/01/29 01:52:43;;;;;;;8.48;5.25;;;;;;;3.06;100.00;102823.22;4979360;28;20057;-73
2023/01/29 01:55:12;;;;;;;12.68;5.72;;;;;;;3.04;100.00;102831.03;4994754;28;20030;-73
2023/01/29 01:57:38;;;;;;;12.57;6.22;;;;;;;3.06;100.00;102834.56;5009680;28;20040;-73
2023/01/29 02:00:09;;;;;;;11.98;5.80;;;;;;;3.07;100.00;102830.22;4994222;28;20539;-73
2023/01/29 02:10:57;;;;;;;11.18;6.15;;;;;;;3.07;100.00;102827.59;5003979;28;20038;-73
2023/01/29 02:13:22;;;;;;;10.77;6.28;;;;;;;3.07;100.00;102831.09;4979615;28;20643;-73
2023/01/29 02:15:48;;;;;;;11.55;6.28;;;;;;;3.08;100.00;102840.72;4983360;28;20397;-73
2023/01/29 02:18:15;;;;;;;14.57;6.93;;;;;;;3.07;100.00;102841.56;4979044;28;20042;-73
2023/01/29 02:20:43;;;;;;;15.20;6.97;;;;;;;3.10;100.00;102839.00;4994273;28;20507;-74
2023/01/29 02:23:48;;;;;;;11.07;6.57;;;;;;;3.09;100.00;102831.09;4981296;28;20481;-73
2023/01/29 02:26:31;;;;;;;13.13;6.90;;;;;;;3.09;100.00;102829.38;4978457;28;20069;-73
2023/01/29 02:28:57;;;;;;;;;;;;;;;3.10;100.00;102823.28;4981523;28;20116;-72
2023/01/29 02:31:40;;;;;;;11.18;6.63;;;;;;;3.10;100.00;102814.53;4980542;28;19936;-73
2023/01/29 02:34:19;;;;;;;12.63;6.95;;;;;;;3.09;100.00;102811.06;5006712;28;20445;-74
2023/01/29 02:36:59;;;;;;;11.55;7.10;;;;;;;3.08;100.00;102801.47;4980981;28;20038;-74
2023/01/29 02:39:46;;;;;;;13.93;7.10;;;;;;;3.08;100.00;102800.56;4983350;28;20693;-73
2023/01/29 02:42:16;;;;;;;13.77;7.20;;;;;;;3.07;100.00;102802.31;4980270;28;20053;-73
2023/01/29 02:44:58;;;;;;;15.52;7.63;;;;;;;3.08;100.00;102798.84;4979278;28;20033;-74
2023/01/29 02:47:44;;;;;;;14.13;7.72;;;;;;;3.08;100.00;102793.59;4997978;28;21745;-73
2023/01/29 02:50:34;;;;;;;13.55;8.30;;;;;;;3.09;100.00;102795.38;5008715;28;20481;-73
2023/01/29 02:53:08;;;;;;;12.90;7.22;;;;;;;3.09;100.00;102787.50;4976930;28;20128;-73
2023/01/29 02:55:43;;;;;;;14.48;8.50;;;;;;;3.10;100.00;102777.91;5008174;28;20394;-72
2023/01/29 02:58:43;;;;;;;15.50;8.20;;;;;;;3.11;100.00;102775.31;4980453;28;20489;-73
2023/01/29 03:01:15;;;;;;;13.60;7.75;;;;;;;3.12;100.00;102770.97;4978468;28;20026;-73
2023/01/29 03:03:43;;;;;;;15.95;8.48;;;;;;;3.12;100.00;102756.13;5008280;28;20161;-73
2023/01/29 03:06:21;;;;;;;14.88;8.40;;;;;;;3.15;100.00;102746.59;5008986;28;20029;-73
2023/01/29 03:08:57;;;;;;;15.77;8.98;;;;;;;3.15;100.00;102743.97;4996482;28;20049;-73
2023/01/29 03:11:22;;;;;;;18.08;9.27;;;;;;;3.15;100.00;102736.13;4977983;28;20175;-73
2023/01/29 03:14:22;;;;;;;19.13;9.13;;;;;;;3.12;100.00;102724.72;5008143;28;20038;-73
2023/01/29 03:16:50;;;;;;;18.33;9.77;;;;;;;3.12;100.00;102729.97;4952607;28;20082;-73
2023/01/29 03:19:27;;;;;;;19.55;10.05;;;;;;;3.14;100.00;102726.50;4977367;28;20069;-73
2023/01/29 03:21:59;;;;;;;16.38;9.23;;;;;;;3.14;100.00;102731.75;5008219;28;20045;-73
2023/01/29 03:33:05;;;;;;;16.92;9.05;;;;;;;3.12;100.00;102722.09;5008112;28;20042;-72
2023/01/29 03:35:36;;;;;;;16.83;9.13;;;;;;;3.12;100.00;102713.41;4997581;28;20794;-73
2023/01/29 03:38:08;;;;;;;21.52;9.48;;;;;;;3.11;100.00;102717.72;4991974;28;20656;-73
2023/01/29 03:40:42;;;;;;;13.88;7.07;;;;;;;3.12;100.00;102711.63;4982583;28;20036;-73
2023/01/29 03:43:27;;;;;;;16.23;8.40;;;;;;;3.11;100.00;102720.34;5011838;28;20486;-72
2023/01/29 03:46:10;;;;;;;16.67;9.18;;;;;;;3.11;100.00;102719.50;4996484;28;20117;-72
2023/01/29 03:48:40;;;;;;;18.13;8.75;;;;;;;3.10;100.00;102715.09;4983325;28;20029;-72
2023/01/29 03:51:06;;;;;;;15.68;8.80;;;;;;;3.10;100.00;102721.22;5011605;28;20493;-73
2023/01/29 03:53:39;;;;;;;18.30;8.85;;;;;;;3.10;100.00;102715.09;4981264;28;20040;-73
2023/01/29 03:56:10;;;;;;;14.65;8.02;;;;;;;3.11;100.00;102716.88;4998715;28;20041;-73
2023/01/29 03:58:42;;;;;;;15.35;8.23;;;;;;;3.10;100.00;102715.97;5011203;28;20038;-73
2023/01/29 04:01:32;;;;;;;14.57;8.32;;;;;;;3.10;100.00;102710.75;4998159;28;20029;-73
2023/01/29 04:04:16;;;;;;;17.48;8.02;;;;;;;3.11;100.00;102712.50;4980574;28;20037;-73
2023/01/29 04:06:44;;;;;;;15.40;8.23;;;;;;;3.11;100.00;102707.25;4981137;28;20026;-72
2023/01/29 04:09:14;;;;;;;11.60;7.20;;;;;;;3.12;100.00;102718.63;4981878;28;20662;-73
2023/01/29 04:11:48;;;;;;;13.75;7.55;;;;;;;3.11;100.00;102712.50;4994368;28;20493;-74
2023/01/29 04:14:14;;;;;;;13.38;7.80;;;;;;;3.12;100.00;102703.78;4983860;28;20045;-73
2023/01/29 04:16:43;;;;;;;12.38;7.22;;;;;;;3.15;100.00;102704.72;4981914;28;20136;-72
2023/01/29 04:19:09;;;;;;;13.55;7.53;;;;;;;3.15;100.00;102702.09;4994855;28;20096;-73
2023/01/29 04:21:36;;;;;;;11.75;7.43;;;;;;;3.15;100.00;102705.56;4983081;28;20592;-72
2023/01/29 04:24:03;;;;;;;18.10;8.50;;;;;;;3.12;100.00;102693.31;4983985;28;20087;-73
2023/01/29 04:26:55;;;;;;;12.70;7.15;;;;;;;3.14;100.00;102697.72;4998216;28;20164;-73
2023/01/29 04:29:39;;;;;;;11.43;6.63;;;;;;;3.12;100.00;102695.94;5009858;28;20365;-72
2023/01/29 04:32:17;;;;;;;14.20;7.82;;;;;;;3.15;100.00;102696.88;4998169;28;20155;-72
2023/01/29 04:35:31;;;;;;;12.98;7.47;;;;;;;3.15;100.00;102691.63;4982960;28;20041;-73
2023/01/29 04:38:15;;;;;;;11.45;7.20;;;;;;;3.16;100.00;102698.63;4971399;28;20152;-73
2023/01/29 04:40:56;;;;;;;12.02;7.82;;;;;;;3.15;100.00;102697.72;4983334;28;20156;-72
2023/01/29 04:43:33;;;;;;;13.40;7.82;;;;;;;3.17;100.00;102708.22;5011496;28;20042;-74
2023/01/29 04:46:17;;;;;;;15.30;7.75;;;;;;;3.17;100.00;102703.88;4981736;28;20065;-72
2023/01/29 04:49:14;;;;;;;14.25;8.25;;;;;;;3.17;100.00;102710.84;5011046;28;20197;-73
2023/01/29 04:51:48;;;;;;;16.92;8.07;;;;;;;3.17;100.00;102716.06;4981579;28;20101;-73
2023/01/29 04:54:35;;;;;;;15.23;8.98;;;;;;;3.18;100.00;102717.84;5009162;28;20049;-73
2023/01/29 04:57:10;;;;;;;16.52;8.70;;;;;;;3.17;100.00;102719.59;4998695;28;20034;-73
2023/01/29 04:59:41;;;;;;;13.45;8.00;;;;;;;3.17;100.00;102713.47;4983157;28;20482;-73
2023/01/29 05:02:08;;;;;;;13.77;7.80;;;;;;;3.16;100.00;102694.25;4979320;28;20046;-73
2023/01/29 05:04:36;;;;;;;14.02;8.10;;;;;;;3.15;100.00;102692.50;5010511;28;20417;-73
2023/01/29 05:07:03;;;;;;;12.15;7.32;;;;;;;3.15;100.00;102694.25;4983544;28;20030;-73
2023/01/29 05:09:30;;;;;;;13.30;8.32;;;;;;;3.14;100.00;102684.63;4980875;28;20481;-73
2023/01/29 05:11:55;;;;;;;14.23;8.05;;;;;;;3.14;100.00;102682.03;4980207;28;20099;-72
2023/01/29 05:14:22;;;;;;;17.05;9.15;;;;;;;3.16;100.00;102682.91;5010428;28;20506;-73
2023/01/29 05:16:51;;;;;;;14.00;8.02;;;;;;;3.16;100.00;102680.28;4980683;28;20553;-73
2023/01/29 05:19:16;;;;;;;13.82;7.82;;;;;;;3.15;100.00;102666.31;4979032;28;20034;-73
2023/01/29 05:21:47;;;;;;;15.52;7.93;;;;;;;3.17;100.00;102674.19;4981472;28;20638;-72
2023/01/29 05:24:21;;;;;;;14.13;7.28;;;;;;;3.16;100.00;102677.69;4982609;28;20042;-73
2023/01/29 05:29:32;;;;;;;13.15;7.90;;;;;;;3.17;100.00;102664.63;4989837;28;20049;-73
2023/01/29 05:31:58;;;;;;;13.95;8.15;;;;;;;3.18;100.00;102649.78;4981811;28;20164;-73
2023/01/29 05:34:24;;;;;;;14.35;7.88;;;;;;;3.17;100.00;102641.06;5009856;28;20029;-73
2023/01/29 05:36:49;;;;;;;13.00;7.50;;;;;;;3.16;100.00;102649.75;4979695;28;20054;-73
2023/01/29 05:39:15;;;;;;;14.30;7.65;;;;;;;3.16;100.00;102654.13;5009663;28;21753;-73
2023/01/29 05:41:41;;;;;;;16.20;7.75;;;;;;;3.14;100.00;102643.63;5010185;28;20082;-73
2023/01/29 05:44:09;;;;;;;12.75;7.65;;;;;;;3.14;100.00;102642.75;4980125;28;20117;-73
2023/01/29 05:46:36;;;;;;;14.57;7.90;;;;;;;3.14;100.00;102640.13;4981512;28;20038;-73
2023/01/29 05:49:01;;;;;;;16.55;9.82;;;;;;;3.12;100.00;102640.09;4982237;28;20128;-72
2023/01/29 05:51:27;;;;;;;16.70;9.30;;;;;;;3.12;100.00;102633.13;4982069;28;20045;-73
2023/01/29 05:53:52;;;;;;;18.00;10.25;;;;;;;3.11;100.00;102627.88;5007289;28;21426;-72
2023/01/29 05:56:18;;;;;;;19.05;10.20;;;;;;;3.10;100.00;102610.38;4981657;28;20117;-73
2023/01/29 05:58:44;;;;;;;22.70;11.45;;;;;;;3.07;100.00;102611.25;4981308;28;20898;-73
2023/01/29 06:01:12;;;;;;;23.75;12.23;;;;;;;3.08;100.00;102613.00;5008113;28;20376;-73
2023/01/29 06:03:37;;;;;;;22.23;12.30;;;;;;;3.07;100.00;102610.34;4979475;28;20038;-72
2023/01/29 06:06:03;;;;;;;24.02;12.30;;;;;;;3.08;100.00;102620.84;4979772;28;20036;-73
2023/01/29 06:08:29;;;;;;;22.63;12.07;;;;;;;3.08;100.00;102609.50;4981314;28;20065;-73
2023/01/29 06:10:54;;;;;;;23.58;12.15;;;;;;;3.05;100.00;102610.34;4977839;28;20104;-73
2023/01/29 06:13:20;;;;;;;20.58;12.05;;;;;;;3.05;100.00;102612.09;4983536;28;20046;-73
2023/01/29 06:15:45;;;;;;;24.95;12.70;;;;;;;3.02;100.00;102615.53;4981146;28;20041;-73
2023/01/29 06:18:11;;;;;;;28.98;14.48;;;;;;;2.97;100.00;102615.47;4979353;28;20242;-73
2023/01/29 06:20:36;;;;;;;24.55;13.20;;;;;;;2.94;100.00;102617.16;4998418;28;20050;-73
2023/01/29 06:23:02;;;;;;;26.70;12.98;;;;;;;2.91;100.00;102609.25;4994859;28;20030;-73
2023/01/29 06:25:27;;;;;;;27.15;13.80;;;;;;;2.86;100.00;102601.34;4993116;28;20030;-73
2023/01/29 06:27:53;;;;;;;23.27;12.27;;;;;;;2.82;100.00;102603.03;4978920;28;20741;-73
2023/01/29 06:30:18;;;;;;;27.63;13.50;;;;;;;2.80;100.00;102607.38;4980009;28;20034;-73
2023/01/29 06:32:44;;;;;;;21.17;12.02;;;;;;;2.78;100.00;102602.97;4983533;28;20050;-73
2023/01/29 06:35:10;;;;;;;26.80;12.88;;;;;;;2.77;100.00;102614.28;4978374;28;20129;-73
2023/01/29 06:37:35;;;;;;;26.38;13.80;;;;;;;2.74;100.00;102615.13;4981411;28;20068;-73
2023/01/29 06:40:02;;;;;;;24.20;13.07;;;;;;;2.73;100.00;102615.97;4979585;28;20134;-72
2023/01/29 06:42:27;;;;;;;27.48;13.25;;;;;;;2.72;100.00;102599.38;4981826;28;20569;-72
2023/01/29 06:44:56;;;;;;;25.45;13.43;;;;;;;2.70;100.00;102601.13;4979790;28;20034;-74
2023/01/29 06:47:22;;;;;;;24.45;13.00;;;;;;;2.70;100.00;102605.44;5009375;28;20046;-73
2023/01/29 06:49:48;;;;;;;29.02;13.95;;;;;;;2.69;100.00;102588.91;5009409;28;20076;-73
2023/01/29 06:52:14;;;;;;;22.75;12.32;;;;;;;2.70;100.00;102595.00;4979384;28;20133;-73
2023/01/29 06:54:39;;;;;;;27.15;13.35;;;;;;;2.68;100.00;102604.56;4981973;28;20111;-73
2023/01/29 06:57:05;;;;;;;24.15;13.05;;;;;;;2.69;100.00;102606.31;4981516;28;20121;-73
2023/01/29 06:59:31;;;;;;;24.35;13.55;;;;;;;2.69;100.00;102606.31;4980962;28;20061;-73
2023/01/29 07:01:56;;;;;;;29.20;13.88;;;;;;;2.70;100.00;102600.22;4986028;28;20038;-73
2023/01/29 07:04:22;;;;;;;26.83;13.93;;;;;;;2.69;100.00;102598.47;4998488;28;20047;-73
2023/01/29 07:06:47;;;;;;;27.20;13.18;;;;;;;2.70;100.00;102590.66;4984782;28;20121;-73
2023/01/29 07:09:13;;;;;;;30.30;14.48;;;;;;;2.71;100.00;102586.28;4983639;28;20088;-75
2023/01/29 07:11:39;;;;;;;27.95;13.75;;;;;;;2.69;100.00;102578.44;5012025;28;20061;-74
2023/01/29 07:14:05;;;;;;;27.17;14.98;;;;;;;2.71;100.00;102581.94;5012259;28;20034;-74
2023/01/29 07:16:31;;;;;;;32.47;15.00;;;;;;;2.72;100.00;102577.56;5011920;28;20474;-74
2023/01/29 07:18:56;;;;;;;29.85;15.10;;;;;;;2.72;100.00;102573.22;4981918;28;20124;-74
2023/01/29 07:21:22;;;;;;;27.83;15.05;;;;;;;2.71;100.00;102571.47;4984255;28;20772;-73
2023/01/29 07:23:48;;;;;;;29.80;15.38;;;;;;;2.71;100.00;102571.47;4982633;28;20116;-73
2023/01/29 07:26:14;;;;;;;30.10;14.75;;;;;;;2.73;100.00;102568.91;4979827;28;20037;-72
2023/01/29 07:28:39;;;;;;;30.50;15.55;;;;;;;2.72;100.00;102582.81;4984798;28;20029;-72
2023/01/29 07:31:06;;;;;;;31.00;15.38;;;;;;;2.71;100.00;102573.19;5011363;28;20076;-72
2023/01/29 07:33:32;;;;;;;30.65;15.05;;;;;;;2.70;100.00;102569.72;4985653;28;20050;-72
2023/01/29 07:35:58;;;;;;;32.97;16.42;;;;;;;2.69;100.00;102562.75;4982209;28;20104;-72
2023/01/29 07:38:23;;;;;;;33.88;15.80;;;;;;;2.67;100.00;102568.78;4982199;28;20058;-72
2023/01/29 07:40:51;;;;;;;32.85;16.08;;;;;;;2.67;100.00;102560.94;4983610;28;20046;-72
2023/01/29 07:43:16;;;;;;;32.63;16.40;;;;;;;2.67;100.00;102560.94;4981701;28;20038;-72
2023/01/29 07:45:42;;;;;;;35.97;16.67;;;;;;;2.67;100.00;102553.09;4998337;28;20030;-72
2023/01/29 07:48:10;;;;;;;35.35;16.58;;;;;;;2.65;100.00;102545.22;4983562;28;21630;-72
2023/01/29 07:50:37;;;;;;;36.67;17.05;;;;;;;2.67;100.00;102558.34;4983636;28;20030;-73
2023/01/29 07:53:02;;;;;;;35.33;17.52;;;;;;;2.66;100.00;102552.22;4981072;28;20452;-73
2023/01/29 07:55:28;;;;;;;37.72;17.15;;;;;;;2.67;100.00;102555.72;4983527;28;20072;-73
2023/01/29 07:58:01;;;;;;;33.05;15.90;;;;;;;2.67;100.00;102553.09;4983673;28;20030;-73
2023/01/29 08:00:27;;;;;;;36.80;16.42;;;;;;;2.68;100.00;102547.88;4984324;28;20036;-72
2023/01/29 08:02:53;;;;;;;30.63;15.40;;;;;;;2.70;100.00;102551.41;4970715;28;20116;-73
2023/01/29 08:05:18;;;;;;;34.33;15.05;;;;;;;2.72;100.00;102551.41;4982894;28;20112;-73
2023/01/29 08:07:44;;;;;;;35.78;16.50;;;;;;;2.74;100.00;102554.94;4981916;28;20042;-73
2023/01/29 08:10:10;;;;;;;34.35;16.50;;;;;;;2.75;100.00;102550.59;4982915;28;20049;-73
2023/01/29 08:12:36;;;;;;;33.70;16.38;;;;;;;2.78;100.00;102548.03;4996996;28;20050;-73
2023/01/29 08:15:02;;;;;;;34.45;15.70;;;;;;;2.79;100.00;102561.09;4997858;28;20041;-73
2023/01/29 08:17:27;;;;;;;37.55;17.00;;;;;;;2.81;100.00;102562.03;4982514;28;20041;-72
2023/01/29 08:19:53;;;;;;;34.75;16.05;;;;;;;2.82;100.00;102548.09;4997881;28;20042;-72
2023/01/29 08:22:18;;;;;;;36.33;16.15;;;;;;;2.85;100.00;102545.50;4983277;28;20132;-72
2023/01/29 08:24:44;;;;;;;38.90;17.80;;;;;;;2.85;100.00;102542.88;5011064;28;20045;-72
2023/01/29 08:27:09;;;;;;;35.45;16.38;;;;;;;2.87;100.00;102534.22;4983364;28;20190;-72
2023/01/29 08:29:35;;;;;;;34.35;16.23;;;;;;;2.90;100.00;102544.69;4984055;28;20041;-72
2023/01/29 08:32:00;;;;;;;32.00;15.93;;;;;;;2.92;100.00;102540.34;4997720;28;20042;-72
2023/01/29 08:34:26;;;;;;;37.22;16.38;;;;;;;2.93;100.00;102531.66;4982358;28;20558;-72
2023/01/29 08:36:52;;;;;;;33.45;16.60;;;;;;;2.93;100.00;102529.03;4981525;28;21971;-72
2023/01/29 08:39:18;;;;;;;36.15;16.15;;;;;;;2.95;100.00;102527.34;5011215;28;20457;-72
2023/01/29 08:41:44;;;;;;;32.63;15.57;;;;;;;2.96;100.00;102521.25;4970772;28;20038;-73
2023/01/29 08:44:09;;;;;;;33.15;16.33;;;;;;;2.97;100.00;102515.16;4983043;28;20050;-72
2023/01/29 08:46:36;;;;;;;34.65;15.93;;;;;;;2.99;100.00;102514.31;4980812;28;20577;-72
2023/01/29 08:49:02;;;;;;;30.40;15.05;;;;;;;3.02;100.00;102508.25;4992614;28;20049;-73
2023/01/29 08:51:27;;;;;;;33.20;15.50;;;;;;;3.02;100.00;102507.34;4981522;28;20420;-73
2023/01/29 08:53:53;;;;;;;36.30;15.23;;;;;;;3.02;100.00;102513.47;4982738;28;20118;-72
2023/01/29 08:56:19;;;;;;;33.03;15.98;;;;;;;3.01;100.00;102511.72;4979420;28;20570;-72
2023/01/29 08:58:44;;;;;;;34.25;17.02;;;;;;;3.01;100.00;102500.34;4982152;28;20582;-72
2023/01/29 09:01:12;;;;;;;35.17;15.98;;;;;;;3.03;100.00;102506.47;4982674;28;20037;-73
2023/01/29 09:03:42;;;;;;;37.65;17.70;;;;;;;3.03;100.00;102504.75;4980660;28;20034;-73
2023/01/29 09:06:10;;;;;;;32.60;15.02;;;;;;;3.05;100.00;102503.03;4981093;28;20428;-73
2023/01/29 09:08:36;;;;;;;32.17;14.98;;;;;;;3.06;100.00;102504.78;5010193;28;20405;-73
2023/01/29 09:11:01;;;;;;;35.28;15.75;;;;;;;3.08;100.00;102508.31;4982137;28;20030;-73
2023/01/29 09:13:27;;;;;;;34.00;15.15;;;;;;;3.07;100.00;102506.56;4980452;28;20449;-73
2023/01/29 09:15:52;;;;;;;33.83;16.70;;;;;;;3.11;100.00;102503.09;4980709;28;20065;-72
2023/01/29 09:18:20;;;;;;;33.05;15.85;;;;;;;3.12;100.00;102507.47;4986708;28;20634;-73
2023/01/29 09:20:47;;;;;;;34.08;15.13;;;;;;;3.15;100.00;102509.25;4981862;28;20038;-73
2023/01/29 09:23:12;;;;;;;37.65;16.08;;;;;;;3.16;100.00;102494.44;4996724;28;20104;-73
2023/01/29 09:25:38;;;;;;;33.00;16.17;;;;;;;3.17;100.00;102507.56;4994188;28;20038;-73
2023/01/29 09:28:05;;;;;;;32.03;16.02;;;;;;;3.19;100.00;102497.09;4981253;28;20333;-73
2023/01/29 09:30:32;;;;;;;38.03;15.98;;;;;;;3.22;100.00;102499.75;4981693;28;20050;-73
2023/01/29 09:32:59;;;;;;;34.42;16.52;;;;;;;3.23;100.00;102484.03;4979501;28;20493;-74
2023/01/29 09:35:24;;;;;;;32.28;15.13;;;;;;;3.24;100.00;102491.06;5010086;28;20050;-73
2023/01/29 09:37:51;;;;;;;34.40;15.50;;;;;;;3.28;100.00;102498.94;4981527;28;20117;-73
2023/01/29 09:40:29;;;;;;;33.90;15.85;;;;;;;3.30;100.00;102482.38;4981681;28;20018;-73
2023/01/29 09:43:19;;;;;;;39.28;16.13;;;;;;;3.31;100.00;102491.13;4978943;28;20044;-73
2023/01/29 09:46:00;;;;;;;33.72;15.20;;;;;;;3.32;100.00;102492.91;4980540;28;20163;-73
2023/01/29 09:48:29;;;;;;;41.58;16.75;;;;;;;3.32;100.00;102478.03;4980125;28;20038;-74
2023/01/29 09:50:56;;;;;;;36.00;16.00;;;;;;;3.31;100.00;102480.66;4979989;28;20046;-73
2023/01/29 09:53:31;;;;;;;31.38;14.65;;;;;;;3.32;100.00;102480.66;4995048;28;20207;-73
2023/01/29 09:56:03;;;;;;;35.65;16.55;;;;;;;3.33;100.00;102476.31;4979948;28;20069;-74
2023/01/29 09:58:34;;;;;;;35.78;16.02;;;;;;;3.33;100.00;102471.94;4982704;28;20038;-73
2023/01/29 10:01:15;;;;;;;34.70;16.30;;;;;;;3.33;100.00;102471.94;4996081;28;20034;-73
2023/01/29 10:04:00;;;;;;;34.75;16.48;;;;;;;3.34;100.00;102472.84;4980975;28;20144;-73
2023/01/29 10:07:00;;;;;;;35.45;15.50;;;;;;;3.35;100.00;102479.81;4981595;28;20038;-73
2023/01/29 10:10:01;;;;;;;31.25;16.02;;;;;;;3.36;100.00;102471.09;4979770;28;20033;-71
2023/01/29 10:12:52;;;;;;;35.38;15.85;;;;;;;3.39;100.00;102473.78;4963863;28;20401;-71
2023/01/29 10:15:27;;;;;;;35.10;15.25;;;;;;;3.40;100.00;102479.00;4977649;28;20488;-73
2023/01/29 10:18:05;;;;;;;35.72;15.95;;;;;;;3.42;100.00;102475.53;4977626;28;20148;-71
2023/01/29 10:20:39;;;;;;;37.53;16.25;;;;;;;3.44;100.00;102463.34;4976992;28;20033;-71
2023/01/29 10:23:17;;;;;;;32.60;15.02;;;;;;;3.45;100.00;102470.31;4973965;28;20148;-73
2023/01/29 10:25:44;;;;;;;32.05;15.25;;;;;;;3.46;100.00;102472.97;5003394;28;20157;-71
2023/01/29 10:28:17;;;;;;;36.88;16.02;;;;;;;3.48;100.00;102475.63;4998015;28;20057;-72
2023/01/29 10:30:50;;;;;;;32.85;15.32;;;;;;;3.50;100.00;102469.50;4984782;28;20096;-72
2023/01/29 10:33:32;;;;;;;40.17;15.98;;;;;;;3.53;100.00;102460.81;4980552;28;20271;-73
2023/01/29 10:36:02;;;;;;;39.28;15.43;;;;;;;3.55;100.00;102452.97;4998650;28;20030;-72
2023/01/29 10:38:54;;;;;;;28.52;13.93;;;;;;;3.57;100.00;102441.66;4984800;28;20042;-72
2023/01/29 10:41:34;;;;;;;37.95;14.02;;;;;;;3.61;100.00;102438.19;4995701;28;20035;-72
2023/01/29 10:44:38;;;;;;;29.58;12.68;;;;;;;3.64;100.00;102432.97;5012822;28;20045;-72
2023/01/29 10:47:13;;;;;;;28.90;13.07;;;;;;;3.69;100.00;102424.28;4983184;28;20114;-72
2023/01/29 10:49:51;;;;;;;29.70;12.43;;;;;;;3.71;100.00;102427.78;4976273;28;20113;-72
2023/01/29 10:52:34;;;;;;;28.83;11.43;;;;;;;3.72;100.00;102421.69;5011324;28;20120;-72
2023/01/29 10:55:08;;;;;;;31.20;12.40;;;;;;;3.75;100.00;102412.09;4997998;28;20533;-72
2023/01/29 10:57:34;;;;;;;22.88;11.02;;;;;;;3.80;100.00;102405.16;4981005;28;20034;-72
2023/01/29 11:00:12;;;;;;;28.50;12.65;;;;;;;3.82;100.00;102401.69;4983896;28;20038;-73
2023/01/29 11:02:47;;;;;;;29.48;12.48;;;;;;;3.83;100.00;102399.09;4982949;28;20471;-72
2023/01/29 11:05:50;;;;;;;24.02;11.57;;;;;;;3.88;100.00;102386.00;5012293;28;20389;-72
2023/01/29 11:08:19;;;;;;;27.63;12.77;;;;;;;3.88;100.00;102386.88;4981036;28;20029;-72
2023/01/29 11:10:56;;;;;;;29.50;12.80;;;;;;;3.89;100.00;102378.16;4982336;28;20053;-72
2023/01/29 11:13:26;;;;;;;29.05;12.82;;;;;;;3.90;100.00;102382.53;4996103;28;20694;-73
2023/01/29 11:15:52;;;;;;;27.13;12.65;;;;;;;3.88;100.00;102376.38;4982173;28;20147;-73
2023/01/29 11:18:18;;;;;;;26.40;12.40;;;;;;;3.87;100.00;102374.63;4985544;28;20038;-73
2023/01/29 11:20:44;;;;;;;32.08;13.10;;;;;;;3.89;100.00;102378.16;4984514;28;20050;-72
2023/01/29 11:23:39;;;;;;;30.73;12.90;;;;;;;3.92;100.00;102377.31;4984154;28;20042;-73
2023/01/29 11:26:06;;;;;;;25.20;11.73;;;;;;;3.94;100.00;102371.19;4973886;28;20050;-73
2023/01/29 11:28:43;;;;;;;29.85;13.38;;;;;;;3.98;100.00;102358.97;5011752;28;20346;-73
2023/01/29 11:31:26;;;;;;;30.40;13.30;;;;;;;4.00;100.00;102345.91;4983664;28;20379;-72
2023/01/29 11:33:59;;;;;;;32.00;12.82;;;;;;;4.03;100.00;102353.81;4983979;28;20068;-72
2023/01/29 11:36:36;;;;;;;24.25;12.30;;;;;;;4.04;100.00;102345.91;5000346;28;20121;-72
2023/01/29 11:39:22;;;;;;;28.42;13.32;;;;;;;4.10;100.00;102350.34;5011999;28;20046;-72
2023/01/29 11:41:54;;;;;;;26.30;12.75;;;;;;;4.13;100.00;102341.63;4982477;28;20046;-72
2023/01/29 11:44:30;;;;;;;24.35;11.52;;;;;;;4.13;100.00;102347.72;4984642;28;20038;-72
2023/01/29 11:47:08;;;;;;;27.23;11.80;;;;;;;4.13;100.00;102345.09;4983045;28;20576;-72
2023/01/29 11:49:34;;;;;;;29.08;12.68;;;;;;;4.14;100.00;102336.38;4983588;28;20050;-73
2023/01/29 11:52:02;;;;;;;28.38;13.93;;;;;;;4.15;100.00;102337.25;5010099;28;20956;-72
2023/01/29 11:54:33;;;;;;;29.83;13.05;;;;;;;4.12;100.00;102331.97;4998572;28;20069;-72
2023/01/29 11:56:59;;;;;;;31.20;13.77;;;;;;;4.08;100.00;102325.84;4993113;28;20045;-72
2023/01/29 11:59:47;;;;;;;30.95;14.20;;;;;;;4.04;100.00;102324.94;4980008;28;20088;-72